createdAt,value
2023-05-16T00:03:52.138Z,7.40
2023-05-16T00:09:00.444Z,7.60
2023-05-16T00:14:08.478Z,7.50
2023-05-16T00:19:16.969Z,7.40
2023-05-16T00:24:24.354Z,7.40
2023-05-16T00:29:32.210Z,7.40
2023-05-16T00:34:41.131Z,7.50
2023-05-16T00:39:48.178Z,7.50
2023-05-16T00:44:55.682Z,7.30
2023-05-16T00:50:02.530Z,7.20
2023-05-16T00:55:11.828Z,7.20
2023-05-16T01:00:20.450Z,7.00
2023-05-16T01:05:27.913Z,7.10
2023-05-16T01:11:06.206Z,7.40
2023-05-16T01:16:34.837Z,7.10
2023-05-16T01:21:58.619Z,7.20
2023-05-16T01:27:06.878Z,7.00
2023-05-16T01:32:14.836Z,7.10
2023-05-16T01:37:26.466Z,7.10
2023-05-16T01:42:36.719Z,6.90
2023-05-16T01:47:49.182Z,7.00
2023-05-16T01:53:09.412Z,6.90
2023-05-16T01:58:20.705Z,6.80
2023-05-16T02:03:27.338Z,6.80
2023-05-16T02:08:34.853Z,6.80
2023-05-16T02:13:42.752Z,6.80
2023-05-16T02:18:50.193Z,6.80
2023-05-16T02:23:56.952Z,6.80
2023-05-16T02:29:03.599Z,6.90
2023-05-16T02:34:11.798Z,6.90
2023-05-16T02:39:19.801Z,6.90
2023-05-16T02:44:27.412Z,6.80
2023-05-16T02:49:35.294Z,6.80
2023-05-16T02:54:42.196Z,6.80
2023-05-16T02:59:49.494Z,6.90
2023-05-16T03:04:56.986Z,7.00
2023-05-16T03:10:05.180Z,7.00
2023-05-16T03:15:12.688Z,6.90
2023-05-16T03:20:19.782Z,6.80
2023-05-16T03:25:27.591Z,6.50
2023-05-16T03:30:35.263Z,6.40
2023-05-16T03:35:43.916Z,6.70
2023-05-16T03:40:51.764Z,6.70
2023-05-16T03:45:59.447Z,6.80
2023-05-16T03:51:06.540Z,7.10
2023-05-16T03:56:14.148Z,6.80
2023-05-16T04:01:22.511Z,7.20
2023-05-16T04:06:29.718Z,7.60
2023-05-16T04:11:36.816Z,7.80
2023-05-16T04:16:44.082Z,7.90
2023-05-16T04:21:52.973Z,8.40
2023-05-16T04:26:59.909Z,8.70
2023-05-16T04:32:08.012Z,8.70
2023-05-16T04:37:15.054Z,9.00
2023-05-16T04:42:22.268Z,9.10
2023-05-16T04:47:29.630Z,9.50
2023-05-16T04:52:39.074Z,9.80
2023-05-16T04:57:47.664Z,10.10
2023-05-16T05:02:54.710Z,10.30
2023-05-16T05:08:01.809Z,10.50
2023-05-16T05:13:08.443Z,11.00
2023-05-16T05:18:15.870Z,11.60
2023-05-16T05:23:22.605Z,11.70
2023-05-16T05:28:29.986Z,11.80
2023-05-16T05:33:36.730Z,12.10
2023-05-16T05:38:43.215Z,12.50
2023-05-16T05:43:49.825Z,12.80
2023-05-16T05:48:56.530Z,13.10
2023-05-16T05:54:04.812Z,13.30
2023-05-16T05:59:11.688Z,13.50
2023-05-16T06:04:18.302Z,13.70
2023-05-16T06:09:25.107Z,13.80
2023-05-16T06:14:32.973Z,13.90
2023-05-16T06:19:39.678Z,14.00
2023-05-16T06:24:46.609Z,14.20
2023-05-16T06:29:54.303Z,14.30
2023-05-16T06:35:01.147Z,14.40
2023-05-16T06:40:09.362Z,14.20
2023-05-16T06:45:17.198Z,13.90
2023-05-16T06:50:23.887Z,13.70
2023-05-16T06:55:31.134Z,14.00
2023-05-16T07:00:37.862Z,14.10
2023-05-16T07:05:44.749Z,13.90
2023-05-16T07:10:51.860Z,14.30
2023-05-16T07:15:58.344Z,14.30
2023-05-16T07:21:04.294Z,14.10
2023-05-16T07:26:10.819Z,13.90
2023-05-16T07:31:17.296Z,13.90
2023-05-16T07:36:24.246Z,14.20
2023-05-16T07:41:33.164Z,14.00
2023-05-16T07:46:40.212Z,14.20
2023-05-16T07:51:47.039Z,13.90
2023-05-16T07:56:53.872Z,14.00
2023-05-16T08:02:01.071Z,14.00
2023-05-16T08:07:08.092Z,14.10
2023-05-16T08:12:14.745Z,14.60
2023-05-16T08:17:22.982Z,15.00
2023-05-16T08:22:29.744Z,14.80
2023-05-16T08:27:37.203Z,15.10
2023-05-16T08:32:44.692Z,14.80
2023-05-16T08:37:51.898Z,15.00
2023-05-16T08:42:58.937Z,15.10
2023-05-16T08:48:10.108Z,15.20
2023-05-16T08:53:20.298Z,15.00
2023-05-16T08:58:30.314Z,14.90
2023-05-16T09:03:39.502Z,15.40
2023-05-16T09:08:47.072Z,15.70
2023-05-16T09:13:54.318Z,15.80
2023-05-16T09:19:03.101Z,15.80
2023-05-16T09:24:11.716Z,15.80
2023-05-16T09:29:19.644Z,15.80
2023-05-16T09:34:28.351Z,15.60
2023-05-16T09:39:35.103Z,15.60
2023-05-16T09:44:42.784Z,15.60
2023-05-16T09:49:54.916Z,16.00
2023-05-16T09:55:05.728Z,16.20
2023-05-16T10:00:14.480Z,15.30
2023-05-16T10:05:21.522Z,15.20
2023-05-16T10:10:30.043Z,15.30
2023-05-16T10:15:39.469Z,15.00
2023-05-16T10:20:50.749Z,14.70
2023-05-16T10:25:59.742Z,14.40
2023-05-16T10:31:09.676Z,14.30
2023-05-16T10:36:18.288Z,14.40
2023-05-16T10:41:26.432Z,14.40
2023-05-16T10:46:34.516Z,14.40
2023-05-16T10:51:41.684Z,14.00
2023-05-16T10:56:53.200Z,13.80
2023-05-16T11:02:00.120Z,13.70
2023-05-16T11:07:06.746Z,13.50
2023-05-16T11:12:15.257Z,13.60
2023-05-16T11:17:27.918Z,13.50
2023-05-16T11:22:43.480Z,13.50
2023-05-16T11:27:50.482Z,13.20
2023-05-16T11:32:58.097Z,13.00
2023-05-16T11:38:05.318Z,12.90
2023-05-16T11:43:13.143Z,12.80
2023-05-16T11:48:32.435Z,12.70
2023-05-16T11:53:30.005Z,12.50
2023-05-16T11:58:40.052Z,12.50
2023-05-16T12:03:48.839Z,12.30
2023-05-16T12:08:58.405Z,12.40
2023-05-16T12:14:10.370Z,12.30
2023-05-16T12:19:17.780Z,12.30
2023-05-16T12:24:30.063Z,12.20
2023-05-16T12:29:37.390Z,12.00
2023-05-16T12:34:57.155Z,11.90
2023-05-16T12:40:04.696Z,12.00
2023-05-16T12:45:19.675Z,11.90
2023-05-16T12:50:29.924Z,11.60
2023-05-16T12:55:38.000Z,11.80
2023-05-16T13:00:45.727Z,11.80
2023-05-16T13:05:53.486Z,11.70
2023-05-16T13:11:00.376Z,11.60
2023-05-16T13:16:09.044Z,11.50
2023-05-16T13:21:16.500Z,11.30
2023-05-16T13:26:25.006Z,11.20
2023-05-16T13:31:33.035Z,11.20
2023-05-16T13:36:52.986Z,11.20
2023-05-16T13:41:50.440Z,11.30
2023-05-16T13:46:59.618Z,11.10
2023-05-16T13:52:07.180Z,11.00
2023-05-16T13:57:15.081Z,10.90
2023-05-16T14:02:22.765Z,10.70
2023-05-16T14:07:29.516Z,10.90
2023-05-16T14:12:38.352Z,10.80
2023-05-16T14:17:45.271Z,10.70
2023-05-16T14:22:51.505Z,10.60
2023-05-16T14:27:59.184Z,10.60
2023-05-16T14:33:06.747Z,10.50
2023-05-16T14:38:15.287Z,10.50
2023-05-16T14:43:22.132Z,10.50
2023-05-16T14:48:29.449Z,10.70
2023-05-16T14:53:38.378Z,10.60
2023-05-16T14:58:45.263Z,10.60
2023-05-16T15:03:56.027Z,10.70
2023-05-16T15:09:00.592Z,10.70
2023-05-16T15:14:08.438Z,10.70
2023-05-16T15:19:16.237Z,10.70
2023-05-16T15:24:23.558Z,10.80
2023-05-16T15:29:30.639Z,10.70
2023-05-16T15:34:38.739Z,10.60
2023-05-16T15:39:46.578Z,10.70
2023-05-16T15:44:54.047Z,10.70
2023-05-16T15:50:01.470Z,10.70
2023-05-16T15:55:09.688Z,10.60
2023-05-16T16:00:17.909Z,10.50
2023-05-16T16:05:25.161Z,10.60
2023-05-16T16:10:32.656Z,10.70
2023-05-16T16:15:42.362Z,10.70
2023-05-16T16:20:49.770Z,10.80
2023-05-16T16:25:56.806Z,10.70
2023-05-16T16:31:03.892Z,10.60
2023-05-16T16:36:11.857Z,10.60
2023-05-16T16:41:18.960Z,10.50
2023-05-16T16:46:25.872Z,10.40
2023-05-16T16:51:36.075Z,10.20
2023-05-16T16:56:44.032Z,10.20
2023-05-16T17:01:51.766Z,10.20
2023-05-16T17:06:58.510Z,10.20
2023-05-16T17:12:07.484Z,10.10
2023-05-16T17:17:14.979Z,10.20
2023-05-16T17:22:22.838Z,10.20
2023-05-16T17:27:29.355Z,10.20
2023-05-16T17:32:35.485Z,10.10
2023-05-16T17:37:43.007Z,10.10
2023-05-16T17:42:51.546Z,10.20
2023-05-16T17:47:58.421Z,10.10
2023-05-16T17:53:07.629Z,10.10
2023-05-16T17:58:15.003Z,10.10
2023-05-16T18:03:22.291Z,9.90
2023-05-16T18:08:30.486Z,10.00
2023-05-16T18:13:38.384Z,9.90
2023-05-16T18:18:46.372Z,9.90
2023-05-16T18:23:56.527Z,9.80
2023-05-16T18:29:04.026Z,9.80
2023-05-16T18:34:14.243Z,9.80
2023-05-16T18:39:21.511Z,9.70
2023-05-16T18:44:29.155Z,9.70
2023-05-16T18:49:37.835Z,9.70
2023-05-16T18:54:45.356Z,9.70
2023-05-16T18:59:55.714Z,9.70
2023-05-16T19:05:05.369Z,9.60
2023-05-16T19:10:13.359Z,9.60
2023-05-16T19:15:20.599Z,9.70
2023-05-16T19:20:29.141Z,9.60
2023-05-16T19:25:36.926Z,9.50
2023-05-16T19:30:44.028Z,9.60
2023-05-16T19:35:52.816Z,9.50
2023-05-16T19:41:01.390Z,9.50
2023-05-16T19:46:11.392Z,9.50
2023-05-16T19:51:29.510Z,9.50
2023-05-16T19:56:28.937Z,9.50
2023-05-16T20:01:35.884Z,9.40
2023-05-16T20:06:42.993Z,9.40
2023-05-16T20:11:50.738Z,9.40
2023-05-16T20:16:58.797Z,9.40
2023-05-16T20:22:05.647Z,9.40
2023-05-16T20:27:13.616Z,9.30
2023-05-16T20:32:23.999Z,9.30
2023-05-16T20:37:32.704Z,9.30
2023-05-16T20:42:42.551Z,9.40
2023-05-16T20:47:51.897Z,9.40
2023-05-16T20:53:00.968Z,9.40
2023-05-16T20:58:07.887Z,9.40
2023-05-16T21:03:14.977Z,9.40
2023-05-16T21:08:24.456Z,9.40
2023-05-16T21:13:32.673Z,9.30
2023-05-16T21:18:39.945Z,9.40
2023-05-16T21:23:47.857Z,9.50
2023-05-16T21:28:55.836Z,9.40
2023-05-16T21:34:06.574Z,9.40
2023-05-16T21:39:14.322Z,9.40
2023-05-16T21:44:21.042Z,9.30
2023-05-16T21:49:29.866Z,9.30
2023-05-16T21:54:37.302Z,9.20
2023-05-16T21:59:44.870Z,9.40
2023-05-16T22:04:53.219Z,9.20
2023-05-16T22:10:00.835Z,9.00
2023-05-16T22:15:10.099Z,9.00
2023-05-16T22:20:17.349Z,9.00
2023-05-16T22:25:25.286Z,9.00
2023-05-16T22:30:32.301Z,9.10
2023-05-16T22:35:40.117Z,9.30
2023-05-16T22:40:47.614Z,9.40
2023-05-16T22:45:54.645Z,9.20
2023-05-16T22:51:02.902Z,9.30
2023-05-16T22:56:10.462Z,9.30
2023-05-16T23:01:17.936Z,9.20
2023-05-16T23:06:25.220Z,9.30
2023-05-16T23:11:33.494Z,9.30
2023-05-16T23:16:41.260Z,9.30
2023-05-16T23:21:48.634Z,9.40
2023-05-16T23:26:55.750Z,9.20
2023-05-16T23:32:02.783Z,9.20
2023-05-16T23:37:10.016Z,9.30
2023-05-16T23:42:16.777Z,9.20
2023-05-16T23:47:24.168Z,9.20
2023-05-16T23:52:30.709Z,9.30
2023-05-16T23:57:37.275Z,9.10
